createdAt,value
2018-06-02T00:01:42.603Z,21.21
2018-06-02T00:04:45.115Z,21.12
2018-06-02T00:07:47.594Z,21.10
2018-06-02T00:10:50.083Z,21.32
2018-06-02T00:13:52.568Z,21.81
2018-06-02T00:16:55.066Z,21.42
2018-06-02T00:19:57.551Z,21.32
2018-06-02T00:23:00.035Z,21.14
2018-06-02T00:26:02.531Z,21.20
2018-06-02T00:29:05.023Z,21.45
2018-06-02T00:32:07.527Z,21.44
2018-06-02T00:35:10.025Z,21.35
2018-06-02T00:38:12.520Z,21.49
2018-06-02T00:41:15.011Z,21.71
2018-06-02T00:44:17.672Z,21.66
2018-06-02T00:47:20.155Z,21.72
2018-06-02T00:50:22.648Z,21.80
2018-06-02T00:53:25.111Z,21.78
2018-06-02T00:56:27.641Z,21.60
2018-06-02T00:59:30.111Z,21.50
2018-06-02T01:02:32.608Z,21.62
2018-06-02T01:05:35.149Z,21.55
2018-06-02T01:08:37.635Z,21.55
2018-06-02T01:11:40.120Z,21.27
2018-06-02T01:14:42.599Z,21.41
2018-06-02T01:17:45.075Z,21.41
2018-06-02T01:20:47.647Z,21.43
2018-06-02T01:23:50.096Z,21.23
2018-06-02T01:26:52.603Z,21.25
2018-06-02T01:29:55.076Z,21.27
2018-06-02T01:32:57.693Z,21.31
2018-06-02T01:36:00.182Z,21.33
2018-06-02T01:39:02.667Z,21.32
2018-06-02T01:42:05.168Z,21.32
2018-06-02T01:45:07.652Z,21.24
2018-06-02T01:48:10.142Z,21.13
2018-06-02T01:51:13.019Z,21.02
2018-06-02T01:54:15.584Z,21.03
2018-06-02T01:57:19.628Z,21.30
2018-06-02T02:00:22.232Z,21.31
2018-06-02T02:03:24.815Z,21.30
2018-06-02T02:06:27.316Z,21.34
2018-06-02T02:09:29.780Z,21.26
2018-06-02T02:12:32.255Z,21.34
2018-06-02T02:15:34.746Z,21.34
2018-06-02T02:18:37.250Z,21.34
2018-06-02T02:21:39.742Z,21.46
2018-06-02T02:27:43.999Z,21.16
2018-06-02T02:30:46.487Z,21.29
2018-06-02T02:33:48.995Z,21.23
2018-06-02T02:36:51.480Z,21.28
2018-06-02T02:39:53.958Z,21.28
2018-06-02T02:42:56.441Z,21.33
2018-06-02T02:45:58.901Z,21.35
2018-06-02T02:49:01.399Z,21.23
2018-06-02T02:52:03.895Z,21.21
2018-06-02T02:55:06.391Z,21.25
2018-06-02T02:58:08.873Z,21.31
2018-06-02T03:01:11.354Z,21.28
2018-06-02T03:04:13.850Z,21.21
2018-06-02T03:07:16.349Z,21.23
2018-06-02T03:10:18.818Z,21.22
2018-06-02T03:13:21.313Z,21.18
2018-06-02T03:16:23.827Z,21.08
2018-06-02T03:19:26.317Z,21.14
2018-06-02T03:22:28.821Z,21.19
2018-06-02T03:25:31.310Z,21.21
2018-06-02T03:28:33.797Z,21.20
2018-06-02T03:31:36.293Z,21.22
2018-06-02T03:34:38.791Z,21.23
2018-06-02T03:37:41.275Z,21.34
2018-06-02T03:40:43.750Z,21.30
2018-06-02T03:43:46.282Z,21.31
2018-06-02T03:46:48.793Z,21.25
2018-06-02T03:49:51.295Z,21.33
2018-06-02T03:52:53.820Z,21.34
2018-06-02T03:55:56.315Z,21.39
2018-06-02T03:58:58.819Z,21.24
2018-06-02T04:02:01.339Z,21.37
2018-06-02T04:05:03.827Z,21.22
2018-06-02T04:08:06.306Z,21.36
2018-06-02T04:11:08.785Z,21.29
2018-06-02T04:14:11.278Z,21.46
2018-06-02T04:17:13.773Z,21.45
2018-06-02T04:20:16.258Z,21.46
2018-06-02T04:23:18.795Z,21.51
2018-06-02T04:26:21.296Z,21.57
2018-06-02T04:29:23.803Z,21.63
2018-06-02T04:32:26.282Z,21.67
2018-06-02T04:35:28.775Z,21.72
2018-06-02T04:38:31.298Z,21.76
2018-06-02T04:41:33.797Z,21.74
2018-06-02T04:44:36.391Z,21.65
2018-06-02T04:47:38.885Z,21.70
2018-06-02T04:50:41.404Z,21.63
2018-06-02T04:53:43.970Z,21.76
2018-06-02T04:56:46.453Z,21.63
2018-06-02T04:59:48.966Z,21.63
2018-06-02T05:02:51.473Z,21.53
2018-06-02T05:05:53.956Z,21.57
2018-06-02T05:08:56.459Z,21.63
2018-06-02T05:11:58.936Z,21.51
2018-06-02T05:15:01.456Z,21.57
2018-06-02T05:18:03.955Z,21.63
2018-06-02T05:21:06.483Z,21.57
2018-06-02T05:24:09.024Z,21.61
2018-06-02T05:27:11.543Z,21.74
2018-06-02T05:30:14.055Z,21.78
2018-06-02T05:33:16.558Z,21.76
2018-06-02T05:36:19.043Z,21.79
2018-06-02T05:39:21.557Z,21.79
2018-06-02T05:42:24.060Z,21.82
2018-06-02T05:45:26.608Z,21.79
2018-06-02T05:48:29.121Z,21.75
2018-06-02T05:51:31.663Z,21.71
2018-06-02T05:54:34.192Z,21.70
2018-06-02T05:57:36.707Z,21.67
2018-06-02T06:00:39.286Z,21.72
2018-06-02T06:03:41.775Z,21.70
2018-06-02T06:06:44.285Z,21.73
2018-06-02T06:09:46.816Z,21.81
2018-06-02T06:12:49.316Z,21.88
2018-06-02T06:15:59.809Z,21.85
2018-06-02T06:19:02.456Z,21.85
2018-06-02T06:22:04.969Z,21.97
2018-06-02T06:25:07.527Z,22.01
2018-06-02T06:28:10.077Z,22.05
2018-06-02T06:31:12.655Z,22.08
2018-06-02T06:34:15.176Z,22.08
2018-06-02T06:37:17.738Z,22.04
2018-06-02T06:40:20.261Z,22.09
2018-06-02T06:43:22.776Z,22.09
2018-06-02T06:46:25.303Z,22.17
2018-06-02T06:49:27.853Z,22.25
2018-06-02T06:52:30.350Z,22.18
2018-06-02T06:55:33.005Z,22.25
2018-06-02T06:58:35.584Z,22.29
2018-06-02T07:01:38.154Z,22.44
2018-06-02T07:04:40.721Z,22.48
2018-06-02T07:07:43.307Z,22.50
2018-06-02T07:10:46.446Z,22.61
2018-06-02T07:13:52.454Z,22.79
2018-06-02T07:16:55.001Z,22.97
2018-06-02T07:19:57.560Z,22.99
2018-06-02T07:23:00.159Z,23.09
2018-06-02T07:26:02.685Z,23.22
2018-06-02T07:29:05.228Z,23.24
2018-06-02T07:32:08.240Z,23.33
2018-06-02T07:35:10.789Z,23.36
2018-06-02T07:38:13.953Z,23.41
2018-06-02T07:41:16.508Z,23.45
2018-06-02T07:44:19.034Z,23.58
2018-06-02T07:47:21.562Z,23.63
2018-06-02T07:50:24.181Z,23.66
2018-06-02T07:53:26.709Z,23.72
2018-06-02T07:56:29.268Z,23.80
2018-06-02T07:59:31.766Z,23.87
2018-06-02T08:02:34.305Z,23.99
2018-06-02T08:05:36.858Z,24.12
2018-06-02T08:08:39.426Z,24.30
2018-06-02T08:11:41.969Z,24.44
2018-06-02T08:14:44.535Z,24.59
2018-06-02T08:17:47.132Z,24.68
2018-06-02T08:20:49.795Z,24.91
2018-06-02T08:23:52.296Z,25.06
2018-06-02T08:26:54.868Z,25.26
2018-06-02T08:29:57.396Z,25.28
2018-06-02T08:32:59.916Z,25.19
2018-06-02T08:36:02.488Z,25.29
2018-06-02T08:39:05.045Z,25.29
2018-06-02T08:42:07.671Z,25.44
2018-06-02T08:45:10.208Z,25.34
2018-06-02T08:48:12.753Z,25.39
2018-06-02T08:51:15.321Z,25.31
2018-06-02T08:54:17.825Z,25.39
2018-06-02T08:57:20.361Z,25.44
2018-06-02T09:00:22.874Z,25.30
2018-06-02T09:03:25.415Z,25.14
2018-06-02T09:06:27.932Z,25.30
2018-06-02T09:09:30.473Z,25.30
2018-06-02T09:12:32.997Z,25.22
2018-06-02T09:15:35.558Z,25.28
2018-06-02T09:18:38.090Z,25.27
2018-06-02T09:21:41.477Z,25.31
2018-06-02T09:24:44.689Z,25.36
2018-06-02T09:27:47.268Z,25.44
2018-06-02T09:30:49.804Z,25.44
2018-06-02T09:33:52.316Z,25.40
2018-06-02T09:36:54.855Z,25.59
2018-06-02T09:39:57.434Z,25.54
2018-06-02T09:43:00.054Z,25.56
2018-06-02T09:46:02.645Z,25.65
2018-06-02T09:49:05.195Z,25.59
2018-06-02T09:52:07.738Z,25.33
2018-06-02T09:55:10.342Z,25.47
2018-06-02T09:58:12.908Z,25.42
2018-06-02T10:01:15.466Z,25.39
2018-06-02T10:04:18.033Z,25.46
2018-06-02T10:07:20.646Z,25.43
2018-06-02T10:10:23.205Z,25.59
2018-06-02T10:13:25.817Z,25.50
2018-06-02T10:16:29.296Z,25.35
2018-06-02T10:19:31.867Z,25.23
2018-06-02T10:22:34.418Z,24.78
2018-06-02T10:25:37.020Z,25.06
2018-06-02T10:28:39.678Z,25.03
2018-06-02T10:31:42.313Z,25.15
2018-06-02T10:34:44.910Z,25.01
2018-06-02T10:37:47.589Z,25.00
2018-06-02T10:40:50.117Z,25.08
2018-06-02T10:43:52.776Z,25.15
2018-06-02T10:46:55.370Z,25.00
2018-06-02T10:49:57.936Z,24.98
2018-06-02T10:53:00.598Z,24.88
2018-06-02T10:56:03.252Z,24.87
2018-06-02T10:59:05.816Z,24.74
2018-06-02T11:02:08.345Z,24.59
2018-06-02T11:05:10.857Z,24.62
2018-06-02T11:08:13.433Z,24.68
2018-06-02T11:11:15.966Z,24.64
2018-06-02T11:14:18.560Z,24.71
2018-06-02T11:17:21.147Z,24.74
2018-06-02T11:20:23.769Z,24.82
2018-06-02T11:23:26.389Z,24.74
2018-06-02T11:26:28.991Z,24.83
2018-06-02T11:29:31.624Z,24.90
2018-06-02T11:32:34.187Z,24.90
2018-06-02T11:35:36.765Z,24.96
2018-06-02T11:38:39.331Z,24.93
2018-06-02T11:41:41.899Z,24.98
2018-06-02T11:44:44.503Z,24.94
2018-06-02T11:47:47.095Z,24.96
2018-06-02T11:50:49.604Z,24.84
2018-06-02T11:53:52.199Z,24.84
2018-06-02T11:56:54.764Z,24.80
2018-06-02T12:03:06.130Z,24.81
2018-06-02T12:06:08.651Z,24.83
2018-06-02T12:09:11.218Z,24.85
2018-06-02T12:12:14.212Z,24.80
2018-06-02T12:15:16.763Z,24.86
2018-06-02T12:18:19.324Z,24.88
2018-06-02T12:21:21.872Z,24.95
2018-06-02T12:24:24.457Z,24.94
2018-06-02T12:27:31.143Z,25.09
2018-06-02T12:30:33.696Z,25.02
2018-06-02T12:33:36.247Z,25.02
2018-06-02T12:36:38.789Z,25.23
2018-06-02T12:39:41.347Z,25.42
2018-06-02T12:42:43.898Z,25.46
2018-06-02T12:45:46.416Z,25.66
2018-06-02T12:48:49.050Z,25.83
2018-06-02T12:51:51.574Z,25.87
2018-06-02T12:54:54.112Z,25.87
2018-06-02T12:57:56.643Z,25.97
2018-06-02T13:00:59.253Z,26.03
2018-06-02T13:04:01.824Z,26.19
2018-06-02T13:07:04.412Z,26.30
2018-06-02T13:10:07.351Z,26.50
2018-06-02T13:13:11.611Z,26.84
2018-06-02T13:16:15.427Z,26.58
2018-06-02T13:19:18.020Z,26.78
2018-06-02T13:22:28.630Z,27.05
2018-06-02T13:25:32.598Z,27.29
2018-06-02T13:28:35.213Z,27.38
2018-06-02T13:31:39.057Z,27.35
2018-06-02T13:34:41.951Z,27.47
2018-06-02T13:37:45.668Z,27.34
2018-06-02T13:40:48.459Z,27.53
2018-06-02T13:43:52.259Z,27.53
2018-06-02T13:46:55.019Z,27.70
2018-06-02T13:50:11.045Z,27.79
2018-06-02T13:53:13.802Z,27.94
2018-06-02T13:56:16.405Z,28.17
2018-06-02T13:59:19.201Z,28.05
2018-06-02T14:02:21.983Z,28.04
2018-06-02T14:05:24.700Z,27.94
2018-06-02T14:08:27.513Z,28.20
2018-06-02T14:11:30.664Z,28.21
2018-06-02T14:14:39.766Z,28.14
2018-06-02T14:17:43.780Z,28.23
2018-06-02T14:20:46.704Z,28.16
2018-06-02T14:23:50.891Z,28.33
2018-06-02T14:26:54.168Z,28.38
2018-06-02T14:29:57.450Z,28.39
2018-06-02T14:33:00.289Z,28.65
2018-06-02T14:36:04.534Z,28.64
2018-06-02T14:39:07.407Z,28.75
2018-06-02T14:42:09.976Z,28.72
2018-06-02T14:45:13.521Z,28.25
2018-06-02T14:48:16.134Z,28.14
2018-06-02T14:51:18.694Z,27.94
2018-06-02T14:54:21.402Z,28.08
2018-06-02T14:57:23.993Z,27.76
2018-06-02T15:00:27.358Z,27.48
2018-06-02T15:03:29.909Z,27.09
2018-06-02T15:06:32.430Z,27.24
2018-06-02T15:09:34.956Z,27.00
2018-06-02T15:12:37.554Z,27.05
2018-06-02T15:15:40.127Z,27.04
2018-06-02T15:18:42.636Z,27.12
2018-06-02T15:21:45.224Z,26.91
2018-06-02T15:24:49.067Z,27.04
2018-06-02T15:27:51.655Z,27.01
2018-06-02T15:30:54.218Z,26.86
2018-06-02T15:33:56.861Z,26.47
2018-06-02T15:37:00.766Z,26.71
2018-06-02T15:40:04.294Z,26.91
2018-06-02T15:43:06.874Z,26.90
2018-06-02T15:46:09.500Z,26.89
2018-06-02T15:49:12.936Z,26.89
2018-06-02T15:52:16.285Z,27.00
2018-06-02T15:55:19.541Z,26.91
2018-06-02T15:58:22.909Z,26.87
2018-06-02T16:01:26.134Z,26.82
2018-06-02T16:04:29.726Z,26.75
2018-06-02T16:07:32.341Z,26.31
2018-06-02T16:10:35.898Z,25.93
2018-06-02T16:13:38.490Z,26.10
2018-06-02T16:16:41.476Z,26.11
2018-06-02T16:19:44.027Z,26.02
2018-06-02T16:22:46.607Z,25.49
2018-06-02T16:25:49.182Z,25.65
2018-06-02T16:28:51.720Z,25.81
2018-06-02T16:31:54.340Z,25.50
2018-06-02T16:34:56.908Z,25.42
2018-06-02T16:37:59.475Z,25.47
2018-06-02T16:41:03.220Z,25.04
2018-06-02T16:44:05.749Z,25.09
2018-06-02T16:47:08.345Z,25.26
2018-06-02T16:50:10.895Z,25.20
2018-06-02T16:53:13.480Z,25.02
2018-06-02T16:56:16.072Z,24.84
2018-06-02T16:59:18.634Z,24.97
2018-06-02T17:02:21.199Z,25.10
2018-06-02T17:05:23.725Z,24.87
2018-06-02T17:08:26.259Z,24.84
2018-06-02T17:11:28.808Z,24.99
2018-06-02T17:14:31.361Z,24.71
2018-06-02T17:17:34.004Z,24.83
2018-06-02T17:20:37.519Z,24.70
2018-06-02T17:23:40.056Z,24.52
2018-06-02T17:26:42.682Z,24.65
2018-06-02T17:29:45.349Z,24.58
2018-06-02T17:32:47.922Z,24.26
2018-06-02T17:35:50.820Z,24.54
2018-06-02T17:38:53.376Z,24.35
2018-06-02T17:41:57.203Z,24.46
2018-06-02T17:44:59.878Z,24.31
2018-06-02T17:48:02.523Z,24.21
2018-06-02T17:51:05.077Z,24.00
2018-06-02T17:54:08.105Z,24.39
2018-06-02T17:57:11.471Z,24.20
2018-06-02T18:00:14.966Z,24.14
2018-06-02T18:03:17.537Z,23.97
2018-06-02T18:06:20.175Z,23.86
2018-06-02T18:09:23.530Z,24.17
2018-06-02T18:12:27.009Z,24.05
2018-06-02T18:15:35.659Z,23.92
2018-06-02T18:18:39.934Z,23.67
2018-06-02T18:21:44.114Z,23.52
2018-06-02T18:24:46.748Z,23.69
2018-06-02T18:27:51.536Z,23.23
2018-06-02T18:30:54.339Z,23.49
2018-06-02T18:34:01.667Z,23.53
2018-06-02T18:37:04.402Z,23.51
2018-06-02T18:40:07.234Z,23.40
2018-06-02T18:43:09.903Z,23.64
2018-06-02T18:46:12.530Z,23.70
2018-06-02T18:49:16.766Z,23.60
2018-06-02T18:52:22.008Z,23.50
2018-06-02T18:55:24.596Z,23.27
2018-06-02T18:58:28.048Z,23.31
2018-06-02T19:01:32.577Z,23.37
2018-06-02T19:04:35.899Z,23.27
2018-06-02T19:07:39.326Z,23.29
2018-06-02T19:10:42.081Z,23.34
2018-06-02T19:13:44.697Z,23.31
2018-06-02T19:16:47.462Z,23.17
2018-06-02T19:19:50.100Z,23.26
2018-06-02T19:22:52.777Z,23.12
2018-06-02T19:25:58.063Z,23.10
2018-06-02T19:29:00.656Z,23.12
2018-06-02T19:32:03.298Z,22.95
2018-06-02T19:35:05.861Z,22.83
2018-06-02T19:38:08.431Z,22.85
2018-06-02T19:41:10.967Z,22.83
2018-06-02T19:44:13.525Z,22.86
2018-06-02T19:47:16.121Z,22.92
2018-06-02T19:50:22.146Z,22.85
2018-06-02T19:53:24.742Z,22.99
2018-06-02T19:56:27.264Z,22.85
2018-06-02T19:59:30.328Z,22.94
2018-06-02T20:02:33.014Z,22.98
2018-06-02T20:05:35.966Z,23.01
2018-06-02T20:08:39.078Z,22.82
2018-06-02T20:11:42.921Z,22.88
2018-06-02T20:14:45.545Z,22.91
2018-06-02T20:17:48.207Z,22.91
2018-06-02T20:20:51.625Z,22.96
2018-06-02T20:23:54.247Z,22.93
2018-06-02T20:26:56.891Z,22.75
2018-06-02T20:29:59.466Z,22.71
2018-06-02T20:33:02.233Z,22.80
2018-06-02T20:36:14.579Z,22.66
2018-06-02T20:39:29.481Z,22.80
2018-06-02T20:42:37.429Z,22.79
2018-06-02T20:53:27.486Z,22.81
2018-06-02T20:56:30.029Z,22.84
2018-06-02T20:59:33.372Z,22.89
2018-06-02T21:02:37.342Z,22.81
2018-06-02T21:05:39.950Z,22.71
2018-06-02T21:08:42.532Z,22.78
2018-06-02T21:11:45.959Z,22.71
2018-06-02T21:14:48.536Z,22.66
2018-06-02T21:17:51.156Z,22.68
2018-06-02T21:20:53.773Z,22.66
2018-06-02T21:23:57.067Z,22.62
2018-06-02T21:26:59.682Z,22.64
2018-06-02T21:30:03.062Z,22.62
2018-06-02T21:33:05.684Z,22.60
2018-06-02T21:36:08.210Z,22.29
2018-06-02T21:39:10.780Z,22.29
2018-06-02T21:42:13.311Z,22.37
2018-06-02T21:45:19.535Z,22.30
2018-06-02T21:48:22.119Z,22.36
2018-06-02T21:51:24.620Z,22.31
2018-06-02T21:54:27.230Z,22.36
2018-06-02T21:57:30.029Z,22.40
2018-06-02T22:00:32.567Z,22.15
2018-06-02T22:03:35.140Z,22.22
2018-06-02T22:06:37.683Z,22.27
2018-06-02T22:09:40.202Z,22.32
2018-06-02T22:12:42.785Z,22.30
2018-06-02T22:15:45.364Z,22.17
2018-06-02T22:18:47.921Z,22.08
2018-06-02T22:21:50.496Z,22.12
2018-06-02T22:24:53.039Z,21.99
2018-06-02T22:27:55.591Z,21.87
2018-06-02T22:30:58.201Z,21.88
2018-06-02T22:34:00.712Z,21.95
2018-06-02T22:37:03.241Z,21.65
2018-06-02T22:40:05.818Z,21.79
2018-06-02T22:43:08.355Z,21.64
2018-06-02T22:46:10.929Z,21.72
2018-06-02T22:49:13.544Z,21.78
2018-06-02T22:52:16.064Z,21.75
2018-06-02T22:55:18.621Z,21.36
2018-06-02T22:58:21.350Z,21.14
2018-06-02T23:01:24.352Z,21.24
2018-06-02T23:04:26.920Z,21.33
2018-06-02T23:07:29.414Z,21.06
2018-06-02T23:10:31.915Z,21.06
2018-06-02T23:13:34.448Z,20.96
2018-06-02T23:16:36.974Z,21.17
2018-06-02T23:19:39.535Z,21.11
2018-06-02T23:22:42.074Z,21.07
2018-06-02T23:25:44.952Z,21.13
2018-06-02T23:28:47.502Z,21.10
2018-06-02T23:31:50.053Z,21.13
2018-06-02T23:34:52.616Z,20.94
2018-06-02T23:37:55.109Z,21.13
2018-06-02T23:40:57.694Z,21.16
2018-06-02T23:44:00.260Z,21.18
2018-06-02T23:47:02.809Z,20.89
2018-06-02T23:50:05.318Z,21.02
2018-06-02T23:53:07.817Z,20.97
2018-06-02T23:56:10.436Z,21.10
2018-06-02T23:59:13.515Z,21.14
